sensor_id;sensor_type;location;lat;lon;timestamp;P1;durP1;ratioP1;P2;durP2;ratioP2
7485;SDS011;3784;54.098;9.998;2022-11-03T00:01:38;10.53;;;3.90;;
7485;SDS011;3784;54.098;9.998;2022-11-03T00:04:09;12.00;;;3.63;;
7485;SDS011;3784;54.098;9.998;2022-11-03T00:06:41;8.60;;;3.43;;
7485;SDS011;3784;54.098;9.998;2022-11-03T00:09:10;7.60;;;2.83;;
7485;SDS011;3784;54.098;9.998;2022-11-03T00:11:38;14.70;;;3.97;;
7485;SDS011;3784;54.098;9.998;2022-11-03T00:14:05;8.07;;;3.20;;
7485;SDS011;3784;54.098;9.998;2022-11-03T00:16:32;7.73;;;3.40;;
7485;SDS011;3784;54.098;9.998;2022-11-03T00:18:59;10.90;;;3.40;;
7485;SDS011;3784;54.098;9.998;2022-11-03T00:21:26;11.53;;;3.50;;
7485;SDS011;3784;54.098;9.998;2022-11-03T00:23:52;8.67;;;3.27;;
7485;SDS011;3784;54.098;9.998;2022-11-03T00:26:20;6.70;;;3.30;;
7485;SDS011;3784;54.098;9.998;2022-11-03T00:28:51;10.13;;;3.30;;
7485;SDS011;3784;54.098;9.998;2022-11-03T00:31:20;7.30;;;2.60;;
7485;SDS011;3784;54.098;9.998;2022-11-03T00:33:53;8.67;;;3.00;;
7485;SDS011;3784;54.098;9.998;2022-11-03T00:36:30;8.10;;;3.33;;
7485;SDS011;3784;54.098;9.998;2022-11-03T00:38:58;9.97;;;3.37;;
7485;SDS011;3784;54.098;9.998;2022-11-03T00:41:25;9.93;;;2.97;;
7485;SDS011;3784;54.098;9.998;2022-11-03T00:43:52;10.27;;;3.40;;
7485;SDS011;3784;54.098;9.998;2022-11-03T00:46:19;8.57;;;3.30;;
7485;SDS011;3784;54.098;9.998;2022-11-03T00:48:47;12.87;;;3.60;;
7485;SDS011;3784;54.098;9.998;2022-11-03T00:51:14;11.63;;;3.17;;
7485;SDS011;3784;54.098;9.998;2022-11-03T00:53:51;9.60;;;2.87;;
7485;SDS011;3784;54.098;9.998;2022-11-03T00:56:19;8.17;;;3.13;;
7485;SDS011;3784;54.098;9.998;2022-11-03T00:58:49;7.00;;;3.07;;
7485;SDS011;3784;54.098;9.998;2022-11-03T01:01:20;10.43;;;3.40;;
7485;SDS011;3784;54.098;9.998;2022-11-03T01:03:50;12.30;;;3.13;;
7485;SDS011;3784;54.098;9.998;2022-11-03T01:06:37;6.83;;;2.70;;
7485;SDS011;3784;54.098;9.998;2022-11-03T01:09:19;6.77;;;3.07;;
7485;SDS011;3784;54.098;9.998;2022-11-03T01:11:56;8.97;;;3.20;;
7485;SDS011;3784;54.098;9.998;2022-11-03T01:14:25;9.93;;;3.10;;
7485;SDS011;3784;54.098;9.998;2022-11-03T01:19:49;9.80;;;3.40;;
7485;SDS011;3784;54.098;9.998;2022-11-03T01:22:16;8.03;;;3.20;;
7485;SDS011;3784;54.098;9.998;2022-11-03T01:24:43;10.17;;;3.60;;
7485;SDS011;3784;54.098;9.998;2022-11-03T01:27:12;11.00;;;3.00;;
7485;SDS011;3784;54.098;9.998;2022-11-03T01:29:40;10.00;;;3.50;;
7485;SDS011;3784;54.098;9.998;2022-11-03T01:32:06;9.03;;;2.87;;
7485;SDS011;3784;54.098;9.998;2022-11-03T01:34:36;12.93;;;2.93;;
7485;SDS011;3784;54.098;9.998;2022-11-03T01:37:02;7.43;;;2.83;;
7485;SDS011;3784;54.098;9.998;2022-11-03T01:39:29;8.50;;;3.47;;
7485;SDS011;3784;54.098;9.998;2022-11-03T01:41:56;10.47;;;3.13;;
7485;SDS011;3784;54.098;9.998;2022-11-03T01:44:24;8.07;;;3.10;;
7485;SDS011;3784;54.098;9.998;2022-11-03T01:49:57;11.67;;;3.27;;
7485;SDS011;3784;54.098;9.998;2022-11-03T01:52:38;6.23;;;2.80;;
7485;SDS011;3784;54.098;9.998;2022-11-03T01:55:08;9.13;;;2.90;;
7485;SDS011;3784;54.098;9.998;2022-11-03T01:57:38;7.70;;;2.87;;
7485;SDS011;3784;54.098;9.998;2022-11-03T02:00:07;6.60;;;2.80;;
7485;SDS011;3784;54.098;9.998;2022-11-03T02:02:34;10.53;;;3.63;;
7485;SDS011;3784;54.098;9.998;2022-11-03T02:05:01;9.90;;;2.93;;
7485;SDS011;3784;54.098;9.998;2022-11-03T02:07:31;9.67;;;3.40;;
7485;SDS011;3784;54.098;9.998;2022-11-03T02:10:00;9.70;;;3.00;;
7485;SDS011;3784;54.098;9.998;2022-11-03T02:12:27;9.77;;;3.30;;
7485;SDS011;3784;54.098;9.998;2022-11-03T02:14:55;10.67;;;3.53;;
7485;SDS011;3784;54.098;9.998;2022-11-03T02:17:26;11.83;;;3.17;;
7485;SDS011;3784;54.098;9.998;2022-11-03T02:22:32;9.30;;;2.83;;
7485;SDS011;3784;54.098;9.998;2022-11-03T02:27:54;12.20;;;3.53;;
7485;SDS011;3784;54.098;9.998;2022-11-03T02:30:20;8.27;;;3.03;;
7485;SDS011;3784;54.098;9.998;2022-11-03T02:32:50;6.63;;;2.87;;
7485;SDS011;3784;54.098;9.998;2022-11-03T02:35:20;10.67;;;2.90;;
7485;SDS011;3784;54.098;9.998;2022-11-03T02:37:51;9.50;;;3.13;;
7485;SDS011;3784;54.098;9.998;2022-11-03T02:40:31;7.53;;;3.27;;
7485;SDS011;3784;54.098;9.998;2022-11-03T02:43:00;12.60;;;3.33;;
7485;SDS011;3784;54.098;9.998;2022-11-03T02:45:27;10.30;;;2.97;;
7485;SDS011;3784;54.098;9.998;2022-11-03T02:47:55;6.97;;;2.87;;
7485;SDS011;3784;54.098;9.998;2022-11-03T02:50:26;7.93;;;2.57;;
7485;SDS011;3784;54.098;9.998;2022-11-03T02:52:53;8.20;;;2.90;;
7485;SDS011;3784;54.098;9.998;2022-11-03T02:55:37;7.93;;;3.13;;
7485;SDS011;3784;54.098;9.998;2022-11-03T03:01:05;7.20;;;2.43;;
7485;SDS011;3784;54.098;9.998;2022-11-03T03:03:41;10.87;;;3.03;;
7485;SDS011;3784;54.098;9.998;2022-11-03T03:06:18;6.77;;;2.80;;
7485;SDS011;3784;54.098;9.998;2022-11-03T03:08:49;8.13;;;3.00;;
7485;SDS011;3784;54.098;9.998;2022-11-03T03:11:19;6.03;;;2.83;;
7485;SDS011;3784;54.098;9.998;2022-11-03T03:14:17;9.60;;;3.13;;
7485;SDS011;3784;54.098;9.998;2022-11-03T03:19:36;10.60;;;3.13;;
7485;SDS011;3784;54.098;9.998;2022-11-03T03:25:20;7.33;;;3.03;;
7485;SDS011;3784;54.098;9.998;2022-11-03T03:27:52;9.50;;;3.10;;
7485;SDS011;3784;54.098;9.998;2022-11-03T03:30:23;13.27;;;3.40;;
7485;SDS011;3784;54.098;9.998;2022-11-03T03:32:49;8.43;;;3.13;;
7485;SDS011;3784;54.098;9.998;2022-11-03T03:35:21;10.40;;;3.03;;
7485;SDS011;3784;54.098;9.998;2022-11-03T03:37:52;7.10;;;2.83;;
7485;SDS011;3784;54.098;9.998;2022-11-03T03:40:25;6.77;;;3.00;;
7485;SDS011;3784;54.098;9.998;2022-11-03T03:42:54;8.27;;;3.10;;
7485;SDS011;3784;54.098;9.998;2022-11-03T03:45:22;10.87;;;3.00;;
7485;SDS011;3784;54.098;9.998;2022-11-03T03:47:50;12.47;;;3.00;;
7485;SDS011;3784;54.098;9.998;2022-11-03T03:50:22;6.03;;;2.83;;
7485;SDS011;3784;54.098;9.998;2022-11-03T03:52:53;9.20;;;2.63;;
7485;SDS011;3784;54.098;9.998;2022-11-03T03:55:22;8.63;;;2.67;;
7485;SDS011;3784;54.098;9.998;2022-11-03T03:57:54;7.17;;;2.70;;
7485;SDS011;3784;54.098;9.998;2022-11-03T04:00:25;8.37;;;2.70;;
7485;SDS011;3784;54.098;9.998;2022-11-03T04:02:51;9.60;;;2.70;;
7485;SDS011;3784;54.098;9.998;2022-11-03T04:05:18;8.43;;;2.60;;
7485;SDS011;3784;54.098;9.998;2022-11-03T04:07:45;8.03;;;2.80;;
7485;SDS011;3784;54.098;9.998;2022-11-03T04:10:15;6.97;;;2.63;;
7485;SDS011;3784;54.098;9.998;2022-11-03T04:12:42;11.37;;;2.80;;
7485;SDS011;3784;54.098;9.998;2022-11-03T04:15:28;7.17;;;2.70;;
7485;SDS011;3784;54.098;9.998;2022-11-03T04:18:13;9.53;;;2.80;;
7485;SDS011;3784;54.098;9.998;2022-11-03T04:20:58;8.67;;;2.90;;
7485;SDS011;3784;54.098;9.998;2022-11-03T04:23:43;10.93;;;3.07;;
7485;SDS011;3784;54.098;9.998;2022-11-03T04:26:10;9.23;;;3.17;;
7485;SDS011;3784;54.098;9.998;2022-11-03T04:28:39;8.37;;;2.83;;
7485;SDS011;3784;54.098;9.998;2022-11-03T04:31:14;7.13;;;2.70;;
7485;SDS011;3784;54.098;9.998;2022-11-03T04:33:42;8.43;;;3.00;;
7485;SDS011;3784;54.098;9.998;2022-11-03T04:38:49;10.73;;;2.87;;
7485;SDS011;3784;54.098;9.998;2022-11-03T04:41:17;9.50;;;2.73;;
7485;SDS011;3784;54.098;9.998;2022-11-03T04:43:51;7.67;;;2.50;;
7485;SDS011;3784;54.098;9.998;2022-11-03T04:46:27;5.43;;;2.20;;
7485;SDS011;3784;54.098;9.998;2022-11-03T04:48:58;6.57;;;2.63;;
7485;SDS011;3784;54.098;9.998;2022-11-03T04:51:26;9.73;;;2.27;;
7485;SDS011;3784;54.098;9.998;2022-11-03T04:54:03;8.53;;;2.30;;
7485;SDS011;3784;54.098;9.998;2022-11-03T04:56:32;7.93;;;2.80;;
7485;SDS011;3784;54.098;9.998;2022-11-03T04:58:59;6.53;;;2.70;;
7485;SDS011;3784;54.098;9.998;2022-11-03T05:01:25;7.30;;;2.60;;
7485;SDS011;3784;54.098;9.998;2022-11-03T05:03:53;7.93;;;2.70;;
7485;SDS011;3784;54.098;9.998;2022-11-03T05:06:20;6.10;;;2.40;;
7485;SDS011;3784;54.098;9.998;2022-11-03T05:09:00;7.33;;;2.43;;
7485;SDS011;3784;54.098;9.998;2022-11-03T05:11:38;7.63;;;3.00;;
7485;SDS011;3784;54.098;9.998;2022-11-03T05:14:27;8.60;;;2.93;;
7485;SDS011;3784;54.098;9.998;2022-11-03T05:16:55;6.27;;;2.40;;
7485;SDS011;3784;54.098;9.998;2022-11-03T05:19:29;6.50;;;2.77;;
7485;SDS011;3784;54.098;9.998;2022-11-03T05:21:59;7.37;;;2.87;;
7485;SDS011;3784;54.098;9.998;2022-11-03T05:24:26;10.87;;;2.63;;
7485;SDS011;3784;54.098;9.998;2022-11-03T05:26:53;8.83;;;2.70;;
7485;SDS011;3784;54.098;9.998;2022-11-03T05:29:21;10.83;;;3.10;;
7485;SDS011;3784;54.098;9.998;2022-11-03T05:31:50;6.67;;;2.60;;
7485;SDS011;3784;54.098;9.998;2022-11-03T05:34:24;9.50;;;2.90;;
7485;SDS011;3784;54.098;9.998;2022-11-03T05:37:06;6.57;;;2.83;;
7485;SDS011;3784;54.098;9.998;2022-11-03T05:39:51;7.00;;;2.57;;
7485;SDS011;3784;54.098;9.998;2022-11-03T05:44:47;8.33;;;2.53;;
7485;SDS011;3784;54.098;9.998;2022-11-03T05:47:21;5.80;;;2.70;;
7485;SDS011;3784;54.098;9.998;2022-11-03T05:49:51;8.77;;;2.83;;
7485;SDS011;3784;54.098;9.998;2022-11-03T05:52:21;6.70;;;2.37;;
7485;SDS011;3784;54.098;9.998;2022-11-03T05:54:49;7.23;;;2.80;;
7485;SDS011;3784;54.098;9.998;2022-11-03T05:57:20;7.50;;;2.80;;
7485;SDS011;3784;54.098;9.998;2022-11-03T05:59:48;7.70;;;2.57;;
7485;SDS011;3784;54.098;9.998;2022-11-03T06:05:10;9.07;;;2.60;;
7485;SDS011;3784;54.098;9.998;2022-11-03T06:07:40;9.83;;;2.50;;
7485;SDS011;3784;54.098;9.998;2022-11-03T06:10:19;10.17;;;3.07;;
7485;SDS011;3784;54.098;9.998;2022-11-03T06:12:53;4.70;;;2.37;;
7485;SDS011;3784;54.098;9.998;2022-11-03T06:15:41;6.37;;;2.20;;
7485;SDS011;3784;54.098;9.998;2022-11-03T06:18:12;5.73;;;2.57;;
7485;SDS011;3784;54.098;9.998;2022-11-03T06:20:40;6.80;;;2.20;;
7485;SDS011;3784;54.098;9.998;2022-11-03T06:23:11;7.97;;;2.60;;
7485;SDS011;3784;54.098;9.998;2022-11-03T06:25:40;8.93;;;3.13;;
7485;SDS011;3784;54.098;9.998;2022-11-03T06:28:19;7.73;;;2.83;;
7485;SDS011;3784;54.098;9.998;2022-11-03T06:30:47;8.43;;;2.90;;
7485;SDS011;3784;54.098;9.998;2022-11-03T06:33:26;9.77;;;2.40;;
7485;SDS011;3784;54.098;9.998;2022-11-03T06:36:01;8.97;;;2.80;;
7485;SDS011;3784;54.098;9.998;2022-11-03T06:38:30;10.37;;;3.53;;
7485;SDS011;3784;54.098;9.998;2022-11-03T06:40:59;7.30;;;2.77;;
7485;SDS011;3784;54.098;9.998;2022-11-03T06:43:39;8.13;;;2.53;;
7485;SDS011;3784;54.098;9.998;2022-11-03T06:46:14;10.70;;;2.43;;
7485;SDS011;3784;54.098;9.998;2022-11-03T06:48:44;8.20;;;2.60;;
7485;SDS011;3784;54.098;9.998;2022-11-03T06:51:21;9.60;;;2.70;;
7485;SDS011;3784;54.098;9.998;2022-11-03T06:53:50;6.93;;;2.70;;
7485;SDS011;3784;54.098;9.998;2022-11-03T06:56:18;10.50;;;2.70;;
7485;SDS011;3784;54.098;9.998;2022-11-03T06:58:50;7.50;;;2.60;;
7485;SDS011;3784;54.098;9.998;2022-11-03T07:01:18;8.37;;;2.40;;
7485;SDS011;3784;54.098;9.998;2022-11-03T07:03:51;9.50;;;3.30;;
7485;SDS011;3784;54.098;9.998;2022-11-03T07:06:37;9.13;;;2.70;;
7485;SDS011;3784;54.098;9.998;2022-11-03T07:09:04;6.67;;;2.70;;
7485;SDS011;3784;54.098;9.998;2022-11-03T07:11:36;8.07;;;2.43;;
7485;SDS011;3784;54.098;9.998;2022-11-03T07:14:18;8.17;;;2.83;;
7485;SDS011;3784;54.098;9.998;2022-11-03T07:16:53;7.10;;;2.77;;
7485;SDS011;3784;54.098;9.998;2022-11-03T07:19:22;6.47;;;2.60;;
7485;SDS011;3784;54.098;9.998;2022-11-03T07:21:52;6.83;;;2.77;;
7485;SDS011;3784;54.098;9.998;2022-11-03T07:24:30;9.07;;;2.77;;
7485;SDS011;3784;54.098;9.998;2022-11-03T07:27:00;7.77;;;2.77;;
7485;SDS011;3784;54.098;9.998;2022-11-03T07:29:36;8.23;;;3.00;;
7485;SDS011;3784;54.098;9.998;2022-11-03T07:32:04;8.50;;;2.67;;
7485;SDS011;3784;54.098;9.998;2022-11-03T07:34:36;6.90;;;3.00;;
7485;SDS011;3784;54.098;9.998;2022-11-03T07:37:02;7.47;;;3.13;;
7485;SDS011;3784;54.098;9.998;2022-11-03T07:39:32;7.33;;;2.80;;
7485;SDS011;3784;54.098;9.998;2022-11-03T07:42:19;11.67;;;3.27;;
7485;SDS011;3784;54.098;9.998;2022-11-03T07:44:47;5.47;;;2.43;;
7485;SDS011;3784;54.098;9.998;2022-11-03T07:47:23;9.47;;;2.53;;
7485;SDS011;3784;54.098;9.998;2022-11-03T07:49:51;8.77;;;2.97;;
7485;SDS011;3784;54.098;9.998;2022-11-03T07:52:18;8.93;;;2.77;;
7485;SDS011;3784;54.098;9.998;2022-11-03T07:54:46;7.93;;;3.20;;
7485;SDS011;3784;54.098;9.998;2022-11-03T07:57:17;10.93;;;2.97;;
7485;SDS011;3784;54.098;9.998;2022-11-03T07:59:46;6.80;;;3.00;;
7485;SDS011;3784;54.098;9.998;2022-11-03T08:04:57;6.60;;;3.00;;
7485;SDS011;3784;54.098;9.998;2022-11-03T08:07:25;9.33;;;2.63;;
7485;SDS011;3784;54.098;9.998;2022-11-03T08:09:53;8.23;;;3.00;;
7485;SDS011;3784;54.098;9.998;2022-11-03T08:12:19;7.27;;;2.80;;
7485;SDS011;3784;54.098;9.998;2022-11-03T08:14:47;7.57;;;2.60;;
7485;SDS011;3784;54.098;9.998;2022-11-03T08:17:13;9.70;;;3.00;;
7485;SDS011;3784;54.098;9.998;2022-11-03T08:19:40;7.00;;;3.00;;
7485;SDS011;3784;54.098;9.998;2022-11-03T08:22:07;8.30;;;2.87;;
7485;SDS011;3784;54.098;9.998;2022-11-03T08:24:33;13.47;;;3.37;;
7485;SDS011;3784;54.098;9.998;2022-11-03T08:27:00;8.57;;;2.90;;
7485;SDS011;3784;54.098;9.998;2022-11-03T08:29:28;7.93;;;2.80;;
7485;SDS011;3784;54.098;9.998;2022-11-03T08:31:55;8.17;;;2.40;;
7485;SDS011;3784;54.098;9.998;2022-11-03T08:34:21;10.67;;;3.17;;
7485;SDS011;3784;54.098;9.998;2022-11-03T08:36:48;7.87;;;2.87;;
7485;SDS011;3784;54.098;9.998;2022-11-03T08:39:14;8.43;;;3.00;;
7485;SDS011;3784;54.098;9.998;2022-11-03T08:41:41;7.60;;;2.80;;
7485;SDS011;3784;54.098;9.998;2022-11-03T08:44:08;13.40;;;3.20;;
7485;SDS011;3784;54.098;9.998;2022-11-03T08:46:34;13.33;;;3.20;;
7485;SDS011;3784;54.098;9.998;2022-11-03T08:49:01;9.40;;;3.30;;
7485;SDS011;3784;54.098;9.998;2022-11-03T08:51:28;5.80;;;2.43;;
7485;SDS011;3784;54.098;9.998;2022-11-03T08:53:54;6.63;;;3.00;;
7485;SDS011;3784;54.098;9.998;2022-11-03T08:56:21;8.00;;;3.43;;
7485;SDS011;3784;54.098;9.998;2022-11-03T08:58:48;8.60;;;2.87;;
7485;SDS011;3784;54.098;9.998;2022-11-03T09:01:14;8.93;;;2.70;;
7485;SDS011;3784;54.098;9.998;2022-11-03T09:03:41;10.67;;;3.07;;
7485;SDS011;3784;54.098;9.998;2022-11-03T09:06:08;9.43;;;3.37;;
7485;SDS011;3784;54.098;9.998;2022-11-03T09:08:34;7.97;;;2.77;;
7485;SDS011;3784;54.098;9.998;2022-11-03T09:11:21;7.10;;;2.43;;
7485;SDS011;3784;54.098;9.998;2022-11-03T09:13:47;8.77;;;2.60;;
7485;SDS011;3784;54.098;9.998;2022-11-03T09:16:14;8.40;;;2.93;;
7485;SDS011;3784;54.098;9.998;2022-11-03T09:18:41;7.63;;;2.70;;
7485;SDS011;3784;54.098;9.998;2022-11-03T09:21:07;8.73;;;2.57;;
7485;SDS011;3784;54.098;9.998;2022-11-03T09:23:34;8.60;;;2.43;;
7485;SDS011;3784;54.098;9.998;2022-11-03T09:26:00;11.97;;;3.00;;
7485;SDS011;3784;54.098;9.998;2022-11-03T09:28:27;6.37;;;2.77;;
7485;SDS011;3784;54.098;9.998;2022-11-03T09:30:53;8.00;;;2.60;;
7485;SDS011;3784;54.098;9.998;2022-11-03T09:33:20;6.57;;;2.37;;
7485;SDS011;3784;54.098;9.998;2022-11-03T09:35:46;8.70;;;3.03;;
7485;SDS011;3784;54.098;9.998;2022-11-03T09:38:13;8.53;;;3.33;;
7485;SDS011;3784;54.098;9.998;2022-11-03T09:40:39;8.57;;;2.80;;
7485;SDS011;3784;54.098;9.998;2022-11-03T09:43:06;8.10;;;2.30;;
7485;SDS011;3784;54.098;9.998;2022-11-03T09:45:33;8.03;;;2.97;;
7485;SDS011;3784;54.098;9.998;2022-11-03T09:48:00;6.83;;;2.63;;
7485;SDS011;3784;54.098;9.998;2022-11-03T09:50:26;7.87;;;3.00;;
7485;SDS011;3784;54.098;9.998;2022-11-03T09:52:53;5.23;;;2.33;;
7485;SDS011;3784;54.098;9.998;2022-11-03T09:55:22;8.30;;;2.80;;
7485;SDS011;3784;54.098;9.998;2022-11-03T09:57:51;7.23;;;2.50;;
7485;SDS011;3784;54.098;9.998;2022-11-03T10:00:19;7.23;;;3.00;;
7485;SDS011;3784;54.098;9.998;2022-11-03T10:02:47;7.00;;;2.70;;
7485;SDS011;3784;54.098;9.998;2022-11-03T10:05:15;8.27;;;2.57;;
7485;SDS011;3784;54.098;9.998;2022-11-03T10:08:03;6.37;;;2.30;;
7485;SDS011;3784;54.098;9.998;2022-11-03T10:10:32;6.93;;;2.93;;
7485;SDS011;3784;54.098;9.998;2022-11-03T10:12:59;6.30;;;2.40;;
7485;SDS011;3784;54.098;9.998;2022-11-03T10:15:26;6.73;;;2.50;;
7485;SDS011;3784;54.098;9.998;2022-11-03T10:17:53;7.27;;;2.63;;
7485;SDS011;3784;54.098;9.998;2022-11-03T10:20:20;8.57;;;2.73;;
7485;SDS011;3784;54.098;9.998;2022-11-03T10:22:49;7.37;;;2.50;;
7485;SDS011;3784;54.098;9.998;2022-11-03T10:25:37;7.77;;;2.67;;
7485;SDS011;3784;54.098;9.998;2022-11-03T10:28:12;8.80;;;3.47;;
7485;SDS011;3784;54.098;9.998;2022-11-03T10:31:02;8.67;;;3.10;;
7485;SDS011;3784;54.098;9.998;2022-11-03T10:33:38;6.20;;;2.97;;
7485;SDS011;3784;54.098;9.998;2022-11-03T10:38:41;9.27;;;2.70;;
7485;SDS011;3784;54.098;9.998;2022-11-03T10:41:10;7.53;;;2.80;;
7485;SDS011;3784;54.098;9.998;2022-11-03T10:43:43;6.07;;;2.73;;
7485;SDS011;3784;54.098;9.998;2022-11-03T10:46:20;8.23;;;2.93;;
7485;SDS011;3784;54.098;9.998;2022-11-03T10:49:10;8.33;;;2.90;;
7485;SDS011;3784;54.098;9.998;2022-11-03T10:51:40;7.93;;;2.90;;
7485;SDS011;3784;54.098;9.998;2022-11-03T10:54:09;8.97;;;2.80;;
7485;SDS011;3784;54.098;9.998;2022-11-03T10:56:38;7.83;;;2.70;;
7485;SDS011;3784;54.098;9.998;2022-11-03T10:59:04;6.63;;;2.53;;
7485;SDS011;3784;54.098;9.998;2022-11-03T11:01:31;7.23;;;2.73;;
7485;SDS011;3784;54.098;9.998;2022-11-03T11:03:57;5.87;;;2.13;;
7485;SDS011;3784;54.098;9.998;2022-11-03T11:06:27;6.87;;;2.90;;
7485;SDS011;3784;54.098;9.998;2022-11-03T11:09:01;4.37;;;2.77;;
7485;SDS011;3784;54.098;9.998;2022-11-03T11:11:29;9.77;;;2.80;;
7485;SDS011;3784;54.098;9.998;2022-11-03T11:17:04;7.63;;;2.53;;
7485;SDS011;3784;54.098;9.998;2022-11-03T11:22:36;6.67;;;2.47;;
7485;SDS011;3784;54.098;9.998;2022-11-03T11:25:03;8.17;;;3.00;;
7485;SDS011;3784;54.098;9.998;2022-11-03T11:30:03;6.70;;;2.73;;
7485;SDS011;3784;54.098;9.998;2022-11-03T11:37:52;8.30;;;2.60;;
7485;SDS011;3784;54.098;9.998;2022-11-03T11:48:40;7.27;;;2.73;;
7485;SDS011;3784;54.098;9.998;2022-11-03T11:51:07;8.30;;;2.83;;
7485;SDS011;3784;54.098;9.998;2022-11-03T11:53:39;7.27;;;2.80;;
7485;SDS011;3784;54.098;9.998;2022-11-03T11:56:12;6.00;;;2.60;;
7485;SDS011;3784;54.098;9.998;2022-11-03T11:58:51;7.93;;;2.73;;
7485;SDS011;3784;54.098;9.998;2022-11-03T12:04:00;8.37;;;2.80;;
7485;SDS011;3784;54.098;9.998;2022-11-03T12:06:35;6.27;;;2.83;;
7485;SDS011;3784;54.098;9.998;2022-11-03T12:09:06;7.03;;;2.90;;
7485;SDS011;3784;54.098;9.998;2022-11-03T12:11:50;7.97;;;3.20;;
7485;SDS011;3784;54.098;9.998;2022-11-03T12:16:54;6.17;;;2.67;;
7485;SDS011;3784;54.098;9.998;2022-11-03T12:19:35;7.63;;;3.00;;
7485;SDS011;3784;54.098;9.998;2022-11-03T12:22:02;5.97;;;2.57;;
7485;SDS011;3784;54.098;9.998;2022-11-03T12:27:00;10.17;;;2.87;;
7485;SDS011;3784;54.098;9.998;2022-11-03T12:29:28;9.10;;;3.03;;
7485;SDS011;3784;54.098;9.998;2022-11-03T12:31:55;6.17;;;2.60;;
7485;SDS011;3784;54.098;9.998;2022-11-03T12:34:21;7.13;;;3.00;;
7485;SDS011;3784;54.098;9.998;2022-11-03T12:36:48;9.33;;;3.10;;
7485;SDS011;3784;54.098;9.998;2022-11-03T12:39:20;6.47;;;3.00;;
7485;SDS011;3784;54.098;9.998;2022-11-03T12:41:47;7.60;;;3.47;;
7485;SDS011;3784;54.098;9.998;2022-11-03T12:44:13;8.60;;;3.27;;
7485;SDS011;3784;54.098;9.998;2022-11-03T12:46:40;5.40;;;2.70;;
7485;SDS011;3784;54.098;9.998;2022-11-03T12:49:06;8.23;;;3.57;;
7485;SDS011;3784;54.098;9.998;2022-11-03T12:51:33;11.37;;;3.60;;
7485;SDS011;3784;54.098;9.998;2022-11-03T12:54:00;8.77;;;3.47;;
7485;SDS011;3784;54.098;9.998;2022-11-03T12:56:26;6.87;;;3.13;;
7485;SDS011;3784;54.098;9.998;2022-11-03T12:58:52;5.50;;;2.60;;
7485;SDS011;3784;54.098;9.998;2022-11-03T13:01:19;7.23;;;2.47;;
7485;SDS011;3784;54.098;9.998;2022-11-03T13:03:46;9.00;;;4.50;;
7485;SDS011;3784;54.098;9.998;2022-11-03T13:06:12;9.17;;;3.30;;
7485;SDS011;3784;54.098;9.998;2022-11-03T13:08:40;8.97;;;3.10;;
7485;SDS011;3784;54.098;9.998;2022-11-03T13:11:06;8.73;;;3.20;;
7485;SDS011;3784;54.098;9.998;2022-11-03T13:13:53;6.63;;;3.13;;
7485;SDS011;3784;54.098;9.998;2022-11-03T13:16:20;8.60;;;3.90;;
7485;SDS011;3784;54.098;9.998;2022-11-03T13:18:47;5.43;;;2.40;;
7485;SDS011;3784;54.098;9.998;2022-11-03T13:21:13;7.57;;;2.57;;
7485;SDS011;3784;54.098;9.998;2022-11-03T13:23:40;6.67;;;3.37;;
7485;SDS011;3784;54.098;9.998;2022-11-03T13:26:06;6.47;;;2.80;;
7485;SDS011;3784;54.098;9.998;2022-11-03T13:28:33;6.73;;;2.93;;
7485;SDS011;3784;54.098;9.998;2022-11-03T13:30:59;7.20;;;3.00;;
7485;SDS011;3784;54.098;9.998;2022-11-03T13:33:26;6.83;;;2.90;;
7485;SDS011;3784;54.098;9.998;2022-11-03T13:35:52;5.40;;;2.50;;
7485;SDS011;3784;54.098;9.998;2022-11-03T13:38:19;5.53;;;2.83;;
7485;SDS011;3784;54.098;9.998;2022-11-03T13:40:46;5.57;;;2.47;;
7485;SDS011;3784;54.098;9.998;2022-11-03T13:43:22;7.23;;;2.77;;
7485;SDS011;3784;54.098;9.998;2022-11-03T13:45:49;4.83;;;2.40;;
7485;SDS011;3784;54.098;9.998;2022-11-03T13:48:15;7.27;;;2.50;;
7485;SDS011;3784;54.098;9.998;2022-11-03T13:51:03;5.43;;;2.57;;
7485;SDS011;3784;54.098;9.998;2022-11-03T13:53:30;7.33;;;2.90;;
7485;SDS011;3784;54.098;9.998;2022-11-03T13:56:17;7.00;;;2.40;;
7485;SDS011;3784;54.098;9.998;2022-11-03T13:58:47;4.80;;;2.37;;
7485;SDS011;3784;54.098;9.998;2022-11-03T14:01:34;7.30;;;3.47;;
7485;SDS011;3784;54.098;9.998;2022-11-03T14:04:02;6.13;;;2.80;;
7485;SDS011;3784;54.098;9.998;2022-11-03T14:06:48;5.53;;;2.60;;
7485;SDS011;3784;54.098;9.998;2022-11-03T14:09:15;7.93;;;2.70;;
7485;SDS011;3784;54.098;9.998;2022-11-03T14:11:41;7.47;;;2.90;;
7485;SDS011;3784;54.098;9.998;2022-11-03T14:14:26;8.93;;;3.53;;
7485;SDS011;3784;54.098;9.998;2022-11-03T14:16:53;7.17;;;3.73;;
7485;SDS011;3784;54.098;9.998;2022-11-03T14:19:20;7.67;;;3.70;;
7485;SDS011;3784;54.098;9.998;2022-11-03T14:21:46;5.83;;;2.97;;
7485;SDS011;3784;54.098;9.998;2022-11-03T14:24:13;4.40;;;2.30;;
7485;SDS011;3784;54.098;9.998;2022-11-03T14:26:39;7.37;;;2.50;;
7485;SDS011;3784;54.098;9.998;2022-11-03T14:29:08;8.43;;;3.10;;
7485;SDS011;3784;54.098;9.998;2022-11-03T14:31:35;7.43;;;2.53;;
7485;SDS011;3784;54.098;9.998;2022-11-03T14:34:01;9.97;;;2.97;;
7485;SDS011;3784;54.098;9.998;2022-11-03T14:36:28;8.43;;;2.63;;
7485;SDS011;3784;54.098;9.998;2022-11-03T14:38:55;6.47;;;3.10;;
7485;SDS011;3784;54.098;9.998;2022-11-03T14:41:21;8.03;;;3.27;;
7485;SDS011;3784;54.098;9.998;2022-11-03T14:44:06;8.27;;;2.90;;
7485;SDS011;3784;54.098;9.998;2022-11-03T14:46:33;8.13;;;3.20;;
7485;SDS011;3784;54.098;9.998;2022-11-03T14:48:59;6.10;;;2.47;;
7485;SDS011;3784;54.098;9.998;2022-11-03T14:51:27;6.07;;;2.67;;
7485;SDS011;3784;54.098;9.998;2022-11-03T14:53:54;6.73;;;2.93;;
7485;SDS011;3784;54.098;9.998;2022-11-03T14:56:23;6.37;;;2.70;;
7485;SDS011;3784;54.098;9.998;2022-11-03T14:58:49;4.67;;;2.50;;
7485;SDS011;3784;54.098;9.998;2022-11-03T15:01:16;8.93;;;3.50;;
7485;SDS011;3784;54.098;9.998;2022-11-03T15:03:44;8.97;;;4.90;;
7485;SDS011;3784;54.098;9.998;2022-11-03T15:06:10;23.53;;;20.20;;
7485;SDS011;3784;54.098;9.998;2022-11-03T15:08:37;22.03;;;18.97;;
7485;SDS011;3784;54.098;9.998;2022-11-03T15:11:04;11.77;;;5.97;;
7485;SDS011;3784;54.098;9.998;2022-11-03T15:13:33;10.57;;;7.43;;
7485;SDS011;3784;54.098;9.998;2022-11-03T15:16:09;8.17;;;5.30;;
7485;SDS011;3784;54.098;9.998;2022-11-03T15:18:35;10.13;;;7.00;;
7485;SDS011;3784;54.098;9.998;2022-11-03T15:21:02;9.07;;;5.50;;
7485;SDS011;3784;54.098;9.998;2022-11-03T15:23:28;9.53;;;7.00;;
7485;SDS011;3784;54.098;9.998;2022-11-03T15:26:15;11.20;;;6.10;;
7485;SDS011;3784;54.098;9.998;2022-11-03T15:28:41;8.80;;;5.23;;
7485;SDS011;3784;54.098;9.998;2022-11-03T15:31:08;10.87;;;3.93;;
7485;SDS011;3784;54.098;9.998;2022-11-03T15:33:34;7.60;;;4.03;;
7485;SDS011;3784;54.098;9.998;2022-11-03T15:36:01;7.43;;;5.37;;
7485;SDS011;3784;54.098;9.998;2022-11-03T15:38:29;8.53;;;3.60;;
7485;SDS011;3784;54.098;9.998;2022-11-03T15:40:56;8.50;;;4.10;;
7485;SDS011;3784;54.098;9.998;2022-11-03T15:43:47;8.53;;;4.07;;
7485;SDS011;3784;54.098;9.998;2022-11-03T15:46:15;7.37;;;2.97;;
7485;SDS011;3784;54.098;9.998;2022-11-03T15:48:42;7.53;;;3.37;;
7485;SDS011;3784;54.098;9.998;2022-11-03T15:51:09;7.87;;;2.77;;
7485;SDS011;3784;54.098;9.998;2022-11-03T15:53:37;9.80;;;4.87;;
7485;SDS011;3784;54.098;9.998;2022-11-03T15:56:04;8.10;;;4.97;;
7485;SDS011;3784;54.098;9.998;2022-11-03T15:58:31;8.20;;;3.43;;
7485;SDS011;3784;54.098;9.998;2022-11-03T16:01:02;9.33;;;4.73;;
7485;SDS011;3784;54.098;9.998;2022-11-03T16:03:29;9.10;;;3.63;;
7485;SDS011;3784;54.098;9.998;2022-11-03T16:05:57;12.07;;;5.07;;
7485;SDS011;3784;54.098;9.998;2022-11-03T16:08:24;12.53;;;3.53;;
7485;SDS011;3784;54.098;9.998;2022-11-03T16:10:51;7.37;;;3.07;;
7485;SDS011;3784;54.098;9.998;2022-11-03T16:13:23;8.93;;;3.70;;
7485;SDS011;3784;54.098;9.998;2022-11-03T16:15:50;11.47;;;3.87;;
7485;SDS011;3784;54.098;9.998;2022-11-03T16:18:18;5.93;;;3.13;;
7485;SDS011;3784;54.098;9.998;2022-11-03T16:20:45;9.67;;;3.93;;
7485;SDS011;3784;54.098;9.998;2022-11-03T16:23:11;8.63;;;3.63;;
7485;SDS011;3784;54.098;9.998;2022-11-03T16:25:38;7.77;;;3.30;;
7485;SDS011;3784;54.098;9.998;2022-11-03T16:28:04;5.53;;;2.50;;
7485;SDS011;3784;54.098;9.998;2022-11-03T16:30:32;8.53;;;2.90;;
7485;SDS011;3784;54.098;9.998;2022-11-03T16:33:00;6.07;;;2.87;;
7485;SDS011;3784;54.098;9.998;2022-11-03T16:35:27;8.03;;;3.40;;